Terminal Aerodrome Forecast
Issued by NWS Cleveland, OH

Home | Current Version | Previous Version | Graphics & Text | Print | Product List | Glossary On
Versions: 1 2 3 4 5 6 7 8 9 10 11 12 13 14 15 16 17 18 19 20 21 22 23 24 25
000
FTUS41 KCLE 010900 AAA
TAFCAK
TAF AMD
KCAK 010905Z 0109/0206 20005KT 6SM BR OVC006
      TEMPO 0109/0113 3SM BR SCT006 OVC025
     FM011300 22008KT 6SM BR SCT008 OVC012
      TEMPO 0113/0115 5SM HZ BKN008
     FM011500 22012KT P6SM SCT015 BKN035
      TEMPO 0115/0118 BKN015
     FM011800 22012KT P6SM BKN045
     FM020200 20009KT P6SM SCT035 BKN120=

USA.gov is the U.S. government's official web portal to all federal, state and local government web resources and services.